sensor_id;sensor_type;location;lat;lon;timestamp;P1;durP1;ratioP1;P2;durP2;ratioP2
62832;SDS011;48891;49.220;6.920;2023-06-22T00:01:53;8.00;;;6.22;;
62832;SDS011;48891;49.220;6.920;2023-06-22T00:04:19;5.87;;;5.23;;
62832;SDS011;48891;49.220;6.920;2023-06-22T00:06:44;8.45;;;5.60;;
62832;SDS011;48891;49.220;6.920;2023-06-22T00:09:09;8.20;;;6.13;;
62832;SDS011;48891;49.220;6.920;2023-06-22T00:11:34;8.67;;;6.57;;
62832;SDS011;48891;49.220;6.920;2023-06-22T00:13:59;8.82;;;6.25;;
62832;SDS011;48891;49.220;6.920;2023-06-22T00:16:24;8.13;;;6.17;;
62832;SDS011;48891;49.220;6.920;2023-06-22T00:18:49;8.87;;;6.57;;
62832;SDS011;48891;49.220;6.920;2023-06-22T00:21:15;9.18;;;6.38;;
62832;SDS011;48891;49.220;6.920;2023-06-22T00:23:40;8.57;;;6.47;;
62832;SDS011;48891;49.220;6.920;2023-06-22T00:26:05;8.95;;;6.80;;
62832;SDS011;48891;49.220;6.920;2023-06-22T00:28:30;7.68;;;6.05;;
62832;SDS011;48891;49.220;6.920;2023-06-22T00:30:55;8.33;;;6.40;;
62832;SDS011;48891;49.220;6.920;2023-06-22T00:33:21;9.00;;;6.18;;
62832;SDS011;48891;49.220;6.920;2023-06-22T00:35:46;8.68;;;6.40;;
62832;SDS011;48891;49.220;6.920;2023-06-22T00:38:11;8.15;;;6.13;;
62832;SDS011;48891;49.220;6.920;2023-06-22T00:40:36;9.50;;;7.13;;
62832;SDS011;48891;49.220;6.920;2023-06-22T00:43:01;8.10;;;6.40;;
62832;SDS011;48891;49.220;6.920;2023-06-22T00:45:27;8.05;;;6.43;;
62832;SDS011;48891;49.220;6.920;2023-06-22T00:47:52;8.43;;;7.23;;
62832;SDS011;48891;49.220;6.920;2023-06-22T00:50:22;7.93;;;6.38;;
62832;SDS011;48891;49.220;6.920;2023-06-22T00:52:51;7.53;;;5.85;;
62832;SDS011;48891;49.220;6.920;2023-06-22T00:55:16;7.65;;;6.13;;
62832;SDS011;48891;49.220;6.920;2023-06-22T00:57:42;8.97;;;6.53;;
62832;SDS011;48891;49.220;6.920;2023-06-22T01:00:07;8.73;;;6.68;;
62832;SDS011;48891;49.220;6.920;2023-06-22T01:02:32;7.53;;;6.47;;
62832;SDS011;48891;49.220;6.920;2023-06-22T01:04:58;8.45;;;6.13;;
62832;SDS011;48891;49.220;6.920;2023-06-22T01:07:35;8.68;;;6.57;;
62832;SDS011;48891;49.220;6.920;2023-06-22T01:10:08;7.78;;;6.10;;
62832;SDS011;48891;49.220;6.920;2023-06-22T01:13:11;8.80;;;6.50;;
62832;SDS011;48891;49.220;6.920;2023-06-22T01:15:30;8.07;;;6.65;;
62832;SDS011;48891;49.220;6.920;2023-06-22T01:17:57;8.60;;;6.63;;
62832;SDS011;48891;49.220;6.920;2023-06-22T01:20:24;8.77;;;6.60;;
62832;SDS011;48891;49.220;6.920;2023-06-22T01:22:59;7.78;;;6.40;;
62832;SDS011;48891;49.220;6.920;2023-06-22T01:25:36;8.82;;;6.60;;
62832;SDS011;48891;49.220;6.920;2023-06-22T01:30:30;9.30;;;6.78;;
62832;SDS011;48891;49.220;6.920;2023-06-22T01:32:57;7.82;;;6.50;;
62832;SDS011;48891;49.220;6.920;2023-06-22T01:35:23;9.32;;;7.00;;
62832;SDS011;48891;49.220;6.920;2023-06-22T01:37:49;9.38;;;7.07;;
62832;SDS011;48891;49.220;6.920;2023-06-22T01:40:14;10.25;;;7.65;;
62832;SDS011;48891;49.220;6.920;2023-06-22T01:42:39;8.90;;;6.97;;
62832;SDS011;48891;49.220;6.920;2023-06-22T01:45:05;10.15;;;7.95;;
62832;SDS011;48891;49.220;6.920;2023-06-22T01:47:31;9.20;;;7.55;;
62832;SDS011;48891;49.220;6.920;2023-06-22T01:49:56;8.85;;;7.10;;
62832;SDS011;48891;49.220;6.920;2023-06-22T01:52:21;9.75;;;7.32;;
62832;SDS011;48891;49.220;6.920;2023-06-22T01:54:47;9.07;;;7.07;;
62832;SDS011;48891;49.220;6.920;2023-06-22T01:57:12;9.10;;;7.20;;
62832;SDS011;48891;49.220;6.920;2023-06-22T01:59:41;10.07;;;7.90;;
62832;SDS011;48891;49.220;6.920;2023-06-22T02:02:09;8.05;;;6.65;;
62832;SDS011;48891;49.220;6.920;2023-06-22T02:04:40;8.75;;;7.00;;
62832;SDS011;48891;49.220;6.920;2023-06-22T02:07:09;9.55;;;7.53;;
62832;SDS011;48891;49.220;6.920;2023-06-22T02:09:36;10.00;;;8.40;;
62832;SDS011;48891;49.220;6.920;2023-06-22T02:12:03;9.77;;;7.68;;
62832;SDS011;48891;49.220;6.920;2023-06-22T02:14:29;9.15;;;7.30;;
62832;SDS011;48891;49.220;6.920;2023-06-22T02:16:55;9.30;;;7.15;;
62832;SDS011;48891;49.220;6.920;2023-06-22T02:19:23;9.85;;;7.05;;
62832;SDS011;48891;49.220;6.920;2023-06-22T02:21:49;10.13;;;8.15;;
62832;SDS011;48891;49.220;6.920;2023-06-22T02:24:14;10.40;;;7.30;;
62832;SDS011;48891;49.220;6.920;2023-06-22T02:26:39;10.40;;;7.60;;
62832;SDS011;48891;49.220;6.920;2023-06-22T02:29:04;9.25;;;7.43;;
62832;SDS011;48891;49.220;6.920;2023-06-22T02:31:29;10.57;;;7.82;;
62832;SDS011;48891;49.220;6.920;2023-06-22T02:33:54;9.10;;;7.05;;
62832;SDS011;48891;49.220;6.920;2023-06-22T02:36:20;11.00;;;8.60;;
62832;SDS011;48891;49.220;6.920;2023-06-22T02:38:45;11.45;;;7.93;;
62832;SDS011;48891;49.220;6.920;2023-06-22T02:41:10;9.90;;;7.85;;
62832;SDS011;48891;49.220;6.920;2023-06-22T02:43:35;10.32;;;8.40;;
62832;SDS011;48891;49.220;6.920;2023-06-22T02:46:00;9.02;;;7.53;;
62832;SDS011;48891;49.220;6.920;2023-06-22T02:48:25;8.02;;;6.55;;
62832;SDS011;48891;49.220;6.920;2023-06-22T02:50:50;9.65;;;7.05;;
62832;SDS011;48891;49.220;6.920;2023-06-22T02:53:15;9.07;;;7.00;;
62832;SDS011;48891;49.220;6.920;2023-06-22T02:55:41;9.77;;;7.63;;
62832;SDS011;48891;49.220;6.920;2023-06-22T02:58:06;10.80;;;8.23;;
62832;SDS011;48891;49.220;6.920;2023-06-22T03:00:31;9.80;;;7.45;;
62832;SDS011;48891;49.220;6.920;2023-06-22T03:02:56;9.37;;;7.20;;
62832;SDS011;48891;49.220;6.920;2023-06-22T03:05:21;9.77;;;7.20;;
62832;SDS011;48891;49.220;6.920;2023-06-22T03:07:47;11.13;;;7.45;;
62832;SDS011;48891;49.220;6.920;2023-06-22T03:10:12;8.70;;;6.87;;
62832;SDS011;48891;49.220;6.920;2023-06-22T03:12:38;8.40;;;6.93;;
62832;SDS011;48891;49.220;6.920;2023-06-22T03:15:06;10.70;;;7.68;;
62832;SDS011;48891;49.220;6.920;2023-06-22T03:17:32;9.77;;;7.18;;
62832;SDS011;48891;49.220;6.920;2023-06-22T03:19:58;8.55;;;6.47;;
62832;SDS011;48891;49.220;6.920;2023-06-22T03:22:23;8.57;;;6.57;;
62832;SDS011;48891;49.220;6.920;2023-06-22T03:24:48;9.13;;;6.80;;
62832;SDS011;48891;49.220;6.920;2023-06-22T03:27:13;9.35;;;7.05;;
62832;SDS011;48891;49.220;6.920;2023-06-22T03:29:38;8.95;;;6.90;;
62832;SDS011;48891;49.220;6.920;2023-06-22T03:32:03;9.52;;;6.95;;
62832;SDS011;48891;49.220;6.920;2023-06-22T03:34:28;9.55;;;6.95;;
62832;SDS011;48891;49.220;6.920;2023-06-22T03:36:54;10.40;;;7.05;;
62832;SDS011;48891;49.220;6.920;2023-06-22T03:39:19;10.60;;;7.13;;
62832;SDS011;48891;49.220;6.920;2023-06-22T03:41:44;9.27;;;6.93;;
62832;SDS011;48891;49.220;6.920;2023-06-22T03:44:09;8.23;;;6.93;;
62832;SDS011;48891;49.220;6.920;2023-06-22T03:46:34;9.75;;;6.95;;
62832;SDS011;48891;49.220;6.920;2023-06-22T03:48:59;8.63;;;6.97;;
62832;SDS011;48891;49.220;6.920;2023-06-22T03:51:24;8.68;;;6.97;;
62832;SDS011;48891;49.220;6.920;2023-06-22T03:53:49;10.45;;;7.00;;
62832;SDS011;48891;49.220;6.920;2023-06-22T03:56:15;9.07;;;7.07;;
62832;SDS011;48891;49.220;6.920;2023-06-22T03:58:40;8.43;;;6.88;;
62832;SDS011;48891;49.220;6.920;2023-06-22T04:01:05;10.18;;;7.57;;
62832;SDS011;48891;49.220;6.920;2023-06-22T04:03:30;8.93;;;7.22;;
62832;SDS011;48891;49.220;6.920;2023-06-22T04:05:55;8.98;;;7.25;;
62832;SDS011;48891;49.220;6.920;2023-06-22T04:08:20;9.33;;;7.10;;
62832;SDS011;48891;49.220;6.920;2023-06-22T04:10:45;9.77;;;6.95;;
62832;SDS011;48891;49.220;6.920;2023-06-22T04:13:11;9.90;;;7.25;;
62832;SDS011;48891;49.220;6.920;2023-06-22T04:15:36;10.15;;;6.65;;
62832;SDS011;48891;49.220;6.920;2023-06-22T04:18:01;10.77;;;7.68;;
62832;SDS011;48891;49.220;6.920;2023-06-22T04:20:26;10.83;;;7.03;;
62832;SDS011;48891;49.220;6.920;2023-06-22T04:22:55;9.73;;;6.90;;
62832;SDS011;48891;49.220;6.920;2023-06-22T04:25:20;9.52;;;6.75;;
62832;SDS011;48891;49.220;6.920;2023-06-22T04:27:45;9.30;;;7.20;;
62832;SDS011;48891;49.220;6.920;2023-06-22T04:30:10;8.45;;;6.80;;
62832;SDS011;48891;49.220;6.920;2023-06-22T04:32:36;9.53;;;7.50;;
62832;SDS011;48891;49.220;6.920;2023-06-22T04:35:01;8.40;;;7.03;;
62832;SDS011;48891;49.220;6.920;2023-06-22T04:37:26;8.85;;;7.03;;
62832;SDS011;48891;49.220;6.920;2023-06-22T04:39:51;8.13;;;6.55;;
62832;SDS011;48891;49.220;6.920;2023-06-22T04:42:17;8.77;;;6.88;;
62832;SDS011;48891;49.220;6.920;2023-06-22T04:44:42;9.55;;;6.63;;
62832;SDS011;48891;49.220;6.920;2023-06-22T04:47:07;7.88;;;6.53;;
62832;SDS011;48891;49.220;6.920;2023-06-22T04:49:32;8.23;;;6.50;;
62832;SDS011;48891;49.220;6.920;2023-06-22T04:51:57;8.43;;;6.50;;
62832;SDS011;48891;49.220;6.920;2023-06-22T04:54:22;10.00;;;7.40;;
62832;SDS011;48891;49.220;6.920;2023-06-22T04:56:47;8.55;;;6.88;;
62832;SDS011;48891;49.220;6.920;2023-06-22T04:59:13;8.60;;;6.27;;
62832;SDS011;48891;49.220;6.920;2023-06-22T05:01:38;9.90;;;6.43;;
62832;SDS011;48891;49.220;6.920;2023-06-22T05:04:03;9.13;;;6.93;;
62832;SDS011;48891;49.220;6.920;2023-06-22T05:06:28;9.20;;;6.87;;
62832;SDS011;48891;49.220;6.920;2023-06-22T05:08:53;8.97;;;6.93;;
62832;SDS011;48891;49.220;6.920;2023-06-22T05:11:19;9.10;;;6.90;;
62832;SDS011;48891;49.220;6.920;2023-06-22T05:13:44;8.13;;;6.10;;
62832;SDS011;48891;49.220;6.920;2023-06-22T05:16:09;7.90;;;6.38;;
62832;SDS011;48891;49.220;6.920;2023-06-22T05:18:34;8.52;;;6.80;;
62832;SDS011;48891;49.220;6.920;2023-06-22T05:21:00;9.05;;;6.90;;
62832;SDS011;48891;49.220;6.920;2023-06-22T05:23:25;8.48;;;6.93;;
62832;SDS011;48891;49.220;6.920;2023-06-22T05:25:50;8.85;;;6.38;;
62832;SDS011;48891;49.220;6.920;2023-06-22T05:28:15;8.95;;;6.82;;
62832;SDS011;48891;49.220;6.920;2023-06-22T05:30:41;8.48;;;6.80;;
62832;SDS011;48891;49.220;6.920;2023-06-22T05:33:06;8.45;;;6.72;;
62832;SDS011;48891;49.220;6.920;2023-06-22T05:35:31;7.43;;;6.05;;
62832;SDS011;48891;49.220;6.920;2023-06-22T05:37:56;7.60;;;5.93;;
62832;SDS011;48891;49.220;6.920;2023-06-22T05:40:21;9.63;;;6.78;;
62832;SDS011;48891;49.220;6.920;2023-06-22T05:42:46;8.75;;;6.97;;
62832;SDS011;48891;49.220;6.920;2023-06-22T05:45:12;8.10;;;6.63;;
62832;SDS011;48891;49.220;6.920;2023-06-22T05:47:37;8.98;;;6.18;;
62832;SDS011;48891;49.220;6.920;2023-06-22T05:50:02;8.23;;;6.50;;
62832;SDS011;48891;49.220;6.920;2023-06-22T05:52:27;8.53;;;6.30;;
62832;SDS011;48891;49.220;6.920;2023-06-22T05:54:52;8.68;;;6.88;;
62832;SDS011;48891;49.220;6.920;2023-06-22T05:57:17;8.00;;;5.70;;
62832;SDS011;48891;49.220;6.920;2023-06-22T05:59:42;8.40;;;6.47;;
62832;SDS011;48891;49.220;6.920;2023-06-22T06:02:08;8.68;;;6.47;;
62832;SDS011;48891;49.220;6.920;2023-06-22T06:04:33;9.00;;;6.30;;
62832;SDS011;48891;49.220;6.920;2023-06-22T06:06:58;8.48;;;6.43;;
62832;SDS011;48891;49.220;6.920;2023-06-22T06:09:23;8.68;;;6.63;;
62832;SDS011;48891;49.220;6.920;2023-06-22T06:11:48;7.78;;;6.18;;
62832;SDS011;48891;49.220;6.920;2023-06-22T06:14:13;9.20;;;7.03;;
62832;SDS011;48891;49.220;6.920;2023-06-22T06:16:38;7.63;;;6.45;;
62832;SDS011;48891;49.220;6.920;2023-06-22T06:19:03;8.02;;;6.05;;
62832;SDS011;48891;49.220;6.920;2023-06-22T06:21:29;7.93;;;6.30;;
62832;SDS011;48891;49.220;6.920;2023-06-22T06:23:54;7.87;;;6.20;;
62832;SDS011;48891;49.220;6.920;2023-06-22T06:26:19;7.78;;;5.88;;
62832;SDS011;48891;49.220;6.920;2023-06-22T06:28:44;9.45;;;6.65;;
62832;SDS011;48891;49.220;6.920;2023-06-22T06:31:10;8.48;;;6.35;;
62832;SDS011;48891;49.220;6.920;2023-06-22T06:33:36;8.65;;;6.57;;
62832;SDS011;48891;49.220;6.920;2023-06-22T06:36:01;7.53;;;6.38;;
62832;SDS011;48891;49.220;6.920;2023-06-22T06:38:26;8.30;;;5.72;;
62832;SDS011;48891;49.220;6.920;2023-06-22T06:40:51;8.10;;;6.30;;
62832;SDS011;48891;49.220;6.920;2023-06-22T06:43:16;7.60;;;5.97;;
62832;SDS011;48891;49.220;6.920;2023-06-22T06:45:41;9.18;;;6.78;;
62832;SDS011;48891;49.220;6.920;2023-06-22T06:48:06;7.68;;;5.65;;
62832;SDS011;48891;49.220;6.920;2023-06-22T06:50:31;7.88;;;6.00;;
62832;SDS011;48891;49.220;6.920;2023-06-22T06:52:57;8.57;;;5.93;;
62832;SDS011;48891;49.220;6.920;2023-06-22T06:55:22;8.20;;;6.45;;
62832;SDS011;48891;49.220;6.920;2023-06-22T06:57:47;8.38;;;6.18;;
62832;SDS011;48891;49.220;6.920;2023-06-22T07:00:12;7.75;;;6.20;;
62832;SDS011;48891;49.220;6.920;2023-06-22T07:02:38;7.40;;;5.93;;
62832;SDS011;48891;49.220;6.920;2023-06-22T07:05:03;8.70;;;6.40;;
62832;SDS011;48891;49.220;6.920;2023-06-22T07:07:28;8.00;;;6.00;;
62832;SDS011;48891;49.220;6.920;2023-06-22T07:09:54;7.50;;;6.10;;
62832;SDS011;48891;49.220;6.920;2023-06-22T07:12:19;8.00;;;6.28;;
62832;SDS011;48891;49.220;6.920;2023-06-22T07:14:44;7.72;;;6.07;;
62832;SDS011;48891;49.220;6.920;2023-06-22T07:17:09;7.28;;;5.70;;
62832;SDS011;48891;49.220;6.920;2023-06-22T07:19:34;7.80;;;6.22;;
62832;SDS011;48891;49.220;6.920;2023-06-22T07:21:59;7.82;;;6.03;;
62832;SDS011;48891;49.220;6.920;2023-06-22T07:24:24;9.98;;;6.50;;
62832;SDS011;48891;49.220;6.920;2023-06-22T07:26:50;9.52;;;6.38;;
62832;SDS011;48891;49.220;6.920;2023-06-22T07:29:19;8.13;;;6.38;;
62832;SDS011;48891;49.220;6.920;2023-06-22T07:31:44;8.27;;;6.25;;
62832;SDS011;48891;49.220;6.920;2023-06-22T07:34:09;7.75;;;6.32;;
62832;SDS011;48891;49.220;6.920;2023-06-22T07:36:34;8.77;;;6.57;;
62832;SDS011;48891;49.220;6.920;2023-06-22T07:38:59;9.60;;;6.50;;
62832;SDS011;48891;49.220;6.920;2023-06-22T07:41:25;9.88;;;6.25;;
62832;SDS011;48891;49.220;6.920;2023-06-22T07:43:50;7.57;;;6.28;;
62832;SDS011;48891;49.220;6.920;2023-06-22T07:46:15;7.57;;;5.82;;
62832;SDS011;48891;49.220;6.920;2023-06-22T07:48:40;7.80;;;6.07;;
62832;SDS011;48891;49.220;6.920;2023-06-22T07:51:05;7.32;;;5.60;;
62832;SDS011;48891;49.220;6.920;2023-06-22T07:53:31;8.23;;;6.22;;
62832;SDS011;48891;49.220;6.920;2023-06-22T07:55:56;7.60;;;6.13;;
62832;SDS011;48891;49.220;6.920;2023-06-22T07:58:21;7.40;;;5.68;;
62832;SDS011;48891;49.220;6.920;2023-06-22T08:00:46;7.85;;;6.18;;
62832;SDS011;48891;49.220;6.920;2023-06-22T08:03:11;7.43;;;6.00;;
62832;SDS011;48891;49.220;6.920;2023-06-22T08:05:36;8.57;;;6.20;;
62832;SDS011;48891;49.220;6.920;2023-06-22T08:08:01;7.43;;;5.75;;
62832;SDS011;48891;49.220;6.920;2023-06-22T08:10:27;7.10;;;5.83;;
62832;SDS011;48891;49.220;6.920;2023-06-22T08:12:52;8.40;;;6.13;;
62832;SDS011;48891;49.220;6.920;2023-06-22T08:15:17;7.53;;;5.88;;
62832;SDS011;48891;49.220;6.920;2023-06-22T08:17:43;6.88;;;5.82;;
62832;SDS011;48891;49.220;6.920;2023-06-22T08:20:08;7.93;;;5.90;;
62832;SDS011;48891;49.220;6.920;2023-06-22T08:22:34;7.90;;;6.13;;
62832;SDS011;48891;49.220;6.920;2023-06-22T08:24:59;8.25;;;5.78;;
62832;SDS011;48891;49.220;6.920;2023-06-22T08:27:24;7.75;;;6.10;;
62832;SDS011;48891;49.220;6.920;2023-06-22T08:29:49;7.50;;;5.65;;
62832;SDS011;48891;49.220;6.920;2023-06-22T08:32:14;7.90;;;5.82;;
62832;SDS011;48891;49.220;6.920;2023-06-22T08:34:39;6.83;;;5.70;;
62832;SDS011;48891;49.220;6.920;2023-06-22T08:37:04;7.22;;;5.80;;
62832;SDS011;48891;49.220;6.920;2023-06-22T08:39:30;7.65;;;6.15;;
62832;SDS011;48891;49.220;6.920;2023-06-22T08:41:55;7.25;;;5.82;;
62832;SDS011;48891;49.220;6.920;2023-06-22T08:44:20;7.90;;;6.10;;
62832;SDS011;48891;49.220;6.920;2023-06-22T08:46:45;6.78;;;5.38;;
62832;SDS011;48891;49.220;6.920;2023-06-22T08:49:10;7.10;;;5.37;;
62832;SDS011;48891;49.220;6.920;2023-06-22T08:51:35;7.77;;;5.77;;
62832;SDS011;48891;49.220;6.920;2023-06-22T08:54:00;8.03;;;6.13;;
62832;SDS011;48891;49.220;6.920;2023-06-22T08:56:26;8.38;;;5.78;;
62832;SDS011;48891;49.220;6.920;2023-06-22T08:58:51;7.82;;;5.70;;
62832;SDS011;48891;49.220;6.920;2023-06-22T09:01:16;9.23;;;6.50;;
62832;SDS011;48891;49.220;6.920;2023-06-22T09:03:41;14.75;;;9.70;;
62832;SDS011;48891;49.220;6.920;2023-06-22T09:06:06;10.45;;;7.50;;
62832;SDS011;48891;49.220;6.920;2023-06-22T09:08:31;13.07;;;8.77;;
62832;SDS011;48891;49.220;6.920;2023-06-22T09:10:57;11.10;;;7.50;;
62832;SDS011;48891;49.220;6.920;2023-06-22T09:13:22;9.27;;;7.15;;
62832;SDS011;48891;49.220;6.920;2023-06-22T09:15:47;10.30;;;7.30;;
62832;SDS011;48891;49.220;6.920;2023-06-22T09:18:13;9.23;;;6.95;;
62832;SDS011;48891;49.220;6.920;2023-06-22T09:20:38;9.93;;;7.90;;
62832;SDS011;48891;49.220;6.920;2023-06-22T09:23:03;9.57;;;6.75;;
62832;SDS011;48891;49.220;6.920;2023-06-22T09:25:28;11.65;;;7.43;;
62832;SDS011;48891;49.220;6.920;2023-06-22T09:27:53;11.18;;;7.70;;
62832;SDS011;48891;49.220;6.920;2023-06-22T09:30:18;11.45;;;8.13;;
62832;SDS011;48891;49.220;6.920;2023-06-22T09:32:43;9.68;;;7.40;;
62832;SDS011;48891;49.220;6.920;2023-06-22T09:35:09;9.98;;;7.20;;
62832;SDS011;48891;49.220;6.920;2023-06-22T09:37:34;9.73;;;6.57;;
62832;SDS011;48891;49.220;6.920;2023-06-22T09:39:59;9.32;;;7.28;;
62832;SDS011;48891;49.220;6.920;2023-06-22T09:42:24;9.93;;;6.72;;
62832;SDS011;48891;49.220;6.920;2023-06-22T09:44:49;9.07;;;6.57;;
62832;SDS011;48891;49.220;6.920;2023-06-22T09:47:14;9.23;;;5.88;;
62832;SDS011;48891;49.220;6.920;2023-06-22T09:49:39;9.10;;;6.57;;
62832;SDS011;48891;49.220;6.920;2023-06-22T09:52:05;8.93;;;6.43;;
62832;SDS011;48891;49.220;6.920;2023-06-22T09:54:30;9.65;;;6.45;;
62832;SDS011;48891;49.220;6.920;2023-06-22T09:56:55;9.35;;;6.30;;
62832;SDS011;48891;49.220;6.920;2023-06-22T09:59:20;7.53;;;6.22;;
62832;SDS011;48891;49.220;6.920;2023-06-22T10:01:45;8.80;;;6.35;;
62832;SDS011;48891;49.220;6.920;2023-06-22T10:04:10;10.13;;;7.05;;
62832;SDS011;48891;49.220;6.920;2023-06-22T10:06:36;8.30;;;6.03;;
62832;SDS011;48891;49.220;6.920;2023-06-22T10:09:01;8.57;;;6.22;;
62832;SDS011;48891;49.220;6.920;2023-06-22T10:11:26;7.22;;;5.50;;
62832;SDS011;48891;49.220;6.920;2023-06-22T10:13:51;8.73;;;6.07;;
62832;SDS011;48891;49.220;6.920;2023-06-22T10:16:16;8.07;;;6.35;;
62832;SDS011;48891;49.220;6.920;2023-06-22T10:18:41;9.77;;;6.20;;
62832;SDS011;48891;49.220;6.920;2023-06-22T10:21:06;7.65;;;5.45;;
62832;SDS011;48891;49.220;6.920;2023-06-22T10:23:31;9.88;;;6.25;;
62832;SDS011;48891;49.220;6.920;2023-06-22T10:25:56;8.63;;;5.80;;
62832;SDS011;48891;49.220;6.920;2023-06-22T10:28:22;8.77;;;5.95;;
62832;SDS011;48891;49.220;6.920;2023-06-22T10:30:47;7.00;;;5.68;;
62832;SDS011;48891;49.220;6.920;2023-06-22T10:33:12;6.82;;;5.43;;
62832;SDS011;48891;49.220;6.920;2023-06-22T10:35:37;8.70;;;6.43;;
62832;SDS011;48891;49.220;6.920;2023-06-22T10:38:03;8.85;;;5.95;;
62832;SDS011;48891;49.220;6.920;2023-06-22T10:40:28;7.65;;;6.00;;
62832;SDS011;48891;49.220;6.920;2023-06-22T10:42:53;8.88;;;5.80;;
62832;SDS011;48891;49.220;6.920;2023-06-22T10:45:18;8.57;;;5.57;;
62832;SDS011;48891;49.220;6.920;2023-06-22T10:47:43;8.73;;;5.60;;
62832;SDS011;48891;49.220;6.920;2023-06-22T10:50:09;8.48;;;5.70;;
62832;SDS011;48891;49.220;6.920;2023-06-22T10:52:34;8.35;;;5.95;;
62832;SDS011;48891;49.220;6.920;2023-06-22T10:54:59;8.87;;;6.13;;
62832;SDS011;48891;49.220;6.920;2023-06-22T10:57:24;9.67;;;5.77;;
62832;SDS011;48891;49.220;6.920;2023-06-22T10:59:49;7.82;;;5.82;;
62832;SDS011;48891;49.220;6.920;2023-06-22T11:02:15;7.10;;;5.28;;
62832;SDS011;48891;49.220;6.920;2023-06-22T11:04:40;8.13;;;5.47;;
62832;SDS011;48891;49.220;6.920;2023-06-22T11:07:05;7.78;;;5.63;;
62832;SDS011;48891;49.220;6.920;2023-06-22T11:09:30;6.85;;;5.53;;
62832;SDS011;48891;49.220;6.920;2023-06-22T11:11:55;8.03;;;5.40;;
62832;SDS011;48891;49.220;6.920;2023-06-22T11:14:21;7.25;;;5.28;;
62832;SDS011;48891;49.220;6.920;2023-06-22T11:16:46;7.20;;;5.40;;
62832;SDS011;48891;49.220;6.920;2023-06-22T11:19:11;8.25;;;5.60;;
62832;SDS011;48891;49.220;6.920;2023-06-22T11:21:36;7.53;;;5.63;;
62832;SDS011;48891;49.220;6.920;2023-06-22T11:24:02;9.48;;;5.50;;
62832;SDS011;48891;49.220;6.920;2023-06-22T11:26:27;10.77;;;5.68;;
62832;SDS011;48891;49.220;6.920;2023-06-22T11:28:52;8.15;;;5.45;;
62832;SDS011;48891;49.220;6.920;2023-06-22T11:31:18;9.07;;;5.93;;
62832;SDS011;48891;49.220;6.920;2023-06-22T11:33:43;8.48;;;5.47;;
62832;SDS011;48891;49.220;6.920;2023-06-22T11:36:08;9.02;;;5.72;;
62832;SDS011;48891;49.220;6.920;2023-06-22T11:38:33;7.38;;;5.82;;
62832;SDS011;48891;49.220;6.920;2023-06-22T11:40:58;7.72;;;5.53;;
62832;SDS011;48891;49.220;6.920;2023-06-22T11:43:23;7.18;;;5.47;;
62832;SDS011;48891;49.220;6.920;2023-06-22T11:45:48;9.80;;;5.40;;
62832;SDS011;48891;49.220;6.920;2023-06-22T11:48:13;6.80;;;5.17;;
62832;SDS011;48891;49.220;6.920;2023-06-22T11:50:39;6.75;;;5.47;;
62832;SDS011;48891;49.220;6.920;2023-06-22T11:53:04;7.78;;;5.30;;
62832;SDS011;48891;49.220;6.920;2023-06-22T11:55:29;8.55;;;5.15;;
62832;SDS011;48891;49.220;6.920;2023-06-22T11:57:55;7.97;;;4.80;;
62832;SDS011;48891;49.220;6.920;2023-06-22T12:00:20;7.35;;;5.10;;
62832;SDS011;48891;49.220;6.920;2023-06-22T12:02:45;9.07;;;5.47;;
62832;SDS011;48891;49.220;6.920;2023-06-22T12:05:10;8.82;;;5.07;;
62832;SDS011;48891;49.220;6.920;2023-06-22T12:07:36;6.57;;;4.80;;
62832;SDS011;48891;49.220;6.920;2023-06-22T12:10:01;9.07;;;5.40;;
62832;SDS011;48891;49.220;6.920;2023-06-22T12:12:26;7.55;;;5.50;;
62832;SDS011;48891;49.220;6.920;2023-06-22T12:14:51;7.23;;;5.10;;
62832;SDS011;48891;49.220;6.920;2023-06-22T12:17:16;8.32;;;5.28;;
62832;SDS011;48891;49.220;6.920;2023-06-22T12:19:42;8.15;;;5.40;;
62832;SDS011;48891;49.220;6.920;2023-06-22T12:22:07;7.13;;;5.03;;
62832;SDS011;48891;49.220;6.920;2023-06-22T12:24:32;7.88;;;5.40;;
62832;SDS011;48891;49.220;6.920;2023-06-22T12:26:57;7.97;;;4.90;;
62832;SDS011;48891;49.220;6.920;2023-06-22T12:29:22;7.22;;;5.28;;
62832;SDS011;48891;49.220;6.920;2023-06-22T12:31:47;8.02;;;4.75;;
62832;SDS011;48891;49.220;6.920;2023-06-22T12:34:12;8.73;;;5.28;;
62832;SDS011;48891;49.220;6.920;2023-06-22T12:36:37;8.68;;;4.97;;
62832;SDS011;48891;49.220;6.920;2023-06-22T12:39:02;9.13;;;5.38;;
62832;SDS011;48891;49.220;6.920;2023-06-22T12:41:28;8.55;;;5.40;;
62832;SDS011;48891;49.220;6.920;2023-06-22T12:43:53;8.13;;;5.15;;
62832;SDS011;48891;49.220;6.920;2023-06-22T12:46:18;6.47;;;4.63;;
62832;SDS011;48891;49.220;6.920;2023-06-22T12:48:43;9.98;;;4.80;;
62832;SDS011;48891;49.220;6.920;2023-06-22T12:51:08;8.55;;;5.00;;
62832;SDS011;48891;49.220;6.920;2023-06-22T12:53:34;8.00;;;5.07;;
62832;SDS011;48891;49.220;6.920;2023-06-22T12:55:59;7.05;;;4.85;;
62832;SDS011;48891;49.220;6.920;2023-06-22T12:58:24;8.20;;;4.82;;
62832;SDS011;48891;49.220;6.920;2023-06-22T13:00:49;6.97;;;4.63;;
62832;SDS011;48891;49.220;6.920;2023-06-22T13:03:14;6.22;;;4.70;;
62832;SDS011;48891;49.220;6.920;2023-06-22T13:05:39;7.32;;;4.57;;
62832;SDS011;48891;49.220;6.920;2023-06-22T13:08:04;9.20;;;5.13;;
62832;SDS011;48891;49.220;6.920;2023-06-22T13:10:29;6.77;;;4.87;;
62832;SDS011;48891;49.220;6.920;2023-06-22T13:12:54;6.65;;;4.70;;
62832;SDS011;48891;49.220;6.920;2023-06-22T13:15:20;9.35;;;5.25;;
62832;SDS011;48891;49.220;6.920;2023-06-22T13:17:45;6.27;;;4.73;;
62832;SDS011;48891;49.220;6.920;2023-06-22T13:20:10;8.68;;;5.03;;
62832;SDS011;48891;49.220;6.920;2023-06-22T13:22:35;7.60;;;4.63;;
62832;SDS011;48891;49.220;6.920;2023-06-22T13:25:00;7.15;;;4.80;;
62832;SDS011;48891;49.220;6.920;2023-06-22T13:27:25;8.02;;;4.65;;
62832;SDS011;48891;49.220;6.920;2023-06-22T13:29:51;7.60;;;5.03;;
62832;SDS011;48891;49.220;6.920;2023-06-22T13:32:16;8.50;;;5.28;;
62832;SDS011;48891;49.220;6.920;2023-06-22T13:34:42;7.83;;;4.30;;
62832;SDS011;48891;49.220;6.920;2023-06-22T13:37:07;9.60;;;5.03;;
62832;SDS011;48891;49.220;6.920;2023-06-22T13:39:32;8.73;;;4.80;;
62832;SDS011;48891;49.220;6.920;2023-06-22T13:41:57;6.13;;;4.05;;
62832;SDS011;48891;49.220;6.920;2023-06-22T13:44:23;6.28;;;4.38;;
62832;SDS011;48891;49.220;6.920;2023-06-22T13:46:48;7.53;;;4.47;;
62832;SDS011;48891;49.220;6.920;2023-06-22T13:49:13;6.28;;;4.20;;
62832;SDS011;48891;49.220;6.920;2023-06-22T13:51:38;6.70;;;4.32;;
62832;SDS011;48891;49.220;6.920;2023-06-22T13:54:03;9.80;;;4.55;;
62832;SDS011;48891;49.220;6.920;2023-06-22T13:56:28;7.00;;;4.07;;
62832;SDS011;48891;49.220;6.920;2023-06-22T13:58:53;8.40;;;4.25;;
62832;SDS011;48891;49.220;6.920;2023-06-22T14:01:19;6.75;;;4.20;;
62832;SDS011;48891;49.220;6.920;2023-06-22T14:03:44;6.10;;;4.10;;
62832;SDS011;48891;49.220;6.920;2023-06-22T14:06:09;7.22;;;4.05;;
62832;SDS011;48891;49.220;6.920;2023-06-22T14:08:34;7.50;;;3.97;;
62832;SDS011;48891;49.220;6.920;2023-06-22T14:10:59;6.20;;;4.32;;
62832;SDS011;48891;49.220;6.920;2023-06-22T14:13:24;7.28;;;4.05;;
62832;SDS011;48891;49.220;6.920;2023-06-22T14:15:49;7.40;;;4.53;;
62832;SDS011;48891;49.220;6.920;2023-06-22T14:18:14;8.40;;;4.00;;
62832;SDS011;48891;49.220;6.920;2023-06-22T14:20:39;8.07;;;4.40;;
62832;SDS011;48891;49.220;6.920;2023-06-22T14:23:05;8.27;;;4.07;;
62832;SDS011;48891;49.220;6.920;2023-06-22T14:25:30;5.88;;;3.88;;
62832;SDS011;48891;49.220;6.920;2023-06-22T14:27:55;6.90;;;3.85;;
62832;SDS011;48891;49.220;6.920;2023-06-22T14:30:20;6.53;;;4.20;;
62832;SDS011;48891;49.220;6.920;2023-06-22T14:32:45;7.15;;;3.88;;
62832;SDS011;48891;49.220;6.920;2023-06-22T14:35:10;7.32;;;3.72;;
62832;SDS011;48891;49.220;6.920;2023-06-22T14:37:35;7.43;;;3.78;;